Cheshire, CT (06408)

12:54 PM EDT on May 26, 2017 (GMT -0400)
Park Place X Taylor Ave | | Change Station

Elev 238 ft 41.51 °N, 72.91 °W | Updated 15 seconds ago

Overcast
Overcast
63.2 °F
Feels Like 63.2 °F
N
0.0
Wind Variable Wind from WSW

Today
High -- | Low -- °F
--% Chance of Precip.
Yesterday
High -- | Low -- °F
Precip. -- in
Pressure 29.57 in
Visibility 10.0 miles
Clouds Mostly Cloudy 1900 ft
Overcast 2500 ft
Dew Point 56 °F
Humidity 79%
Rainfall 0.78 in
Snow Depth Not available.
5:23 AM 8:14 PM
New Moon, 1% visible
METAR KMMK 261553Z AUTO 31005KT 10SM BKN019 OVC025 16/12 A2957 RMK AO2 SLP013 T01560122 TSNO
Pressure 29.57 in
Visibility 10.0 miles
Clouds Mostly Cloudy 1900 ft
Overcast 2500 ft
Dew Point 56 °F
Humidity 79%
Rainfall 0.78 in
Snow Depth Not available.
5:23 AM 8:14 PM
New Moon, 1% visible
METAR KMMK 261553Z AUTO 31005KT 10SM BKN019 OVC025 16/12 A2957 RMK AO2 SLP013 T01560122 TSNO

Get Severe Weather Alerts

Thanks for signing up!

Be on the lookout for a verification email in your inbox.

You'll start receiving the daily forecast at 6 AM.

×

10-Day Weather Forecast

Almanac

Astronomy

May. 26, 2017 Rise Set
Actual Time
Civil Twilight
Nautical Twilight
Astronomical Twilight
Moon
Length of Visible Light
Length of Day
Tomorrow will be .
, % of the Moon is Illuminated

Today's Extremes

State Highs State Lows

Community

WunderPhotos

Category 6

Welcome to Category 6. This is the collective home for Weather Underground's featured writeups by Dr. Jeff Masters (right), Bob Henson (left), Chris Burt, and other regular contributors.

Nearby

Air Quality

  Air Quality AQ Index Pollutant
Not available.

Snow Depth

Station Depth Elevation

Earthquake Activity

City Distance Mag. Time & Date
Minimum magnitude displayed is 2.5.

Coastal Water Temperatures

Place Temperature

Stations

Nearby Weather Stations

Station Location Temp. Windchill Dew Point Humidity Wind Precip. Elev Updated Type
                   

Watches & Warnings

There are currently no watches in effect.